Time;durP1;ratioP1;P1;durP2;ratioP2;P2;SDS_P1;SDS_P2;PMS_P1;PMS_P2;Temp;Humidity;BMP_temperature;BMP_pressure;BME280_temperature;BME280_humidity;BME280_pressure;Samples;Min_cycle;Max_cycle;Signal;HPM_P1;HPM_P2
2022/05/17 00:02:25;;;;;;;17.25;14.00;;;;;;;15.63;100.00;101232.53;5068693;28;20052;-88
2022/05/17 00:04:51;;;;;;;22.42;15.40;;;;;;;15.66;100.00;101243.06;5078840;28;20059;-87
2022/05/17 00:14:39;;;;;;;16.92;14.75;;;;;;;15.69;100.00;101238.56;5083330;28;20067;-88
2022/05/17 00:17:06;;;;;;;18.08;14.25;;;;;;;15.71;100.00;101243.84;5088326;28;20128;-88
2022/05/17 00:19:33;;;;;;;18.98;14.02;;;;;;;15.71;100.00;101234.13;5076874;28;20055;-89
2022/05/17 00:22:07;;;;;;;20.73;16.33;;;;;;;15.74;100.00;101242.91;5073546;28;20036;-86
2022/05/17 00:24:38;;;;;;;25.88;16.00;;;;;;;15.76;100.00;101238.44;5051581;28;20048;-88
2022/05/17 00:29:52;;;;;;;18.70;14.60;;;;;;;15.75;100.00;101237.59;5072483;28;20044;-86
2022/05/17 00:32:21;;;;;;;21.65;17.67;;;;;;;15.75;100.00;101242.88;5073012;28;20104;-87
2022/05/17 00:34:48;;;;;;;20.13;16.77;;;;;;;15.73;100.00;101249.94;5074909;28;20096;-88
2022/05/17 00:37:17;;;;;;;23.17;16.98;;;;;;;15.70;100.00;101247.38;5050284;28;20541;-88
2022/05/17 00:39:45;;;;;;;20.38;17.00;;;;;;;15.66;100.00;101245.69;5051163;28;20143;-89
2022/05/17 00:42:13;;;;;;;27.27;18.73;;;;;;;15.63;100.00;101244.00;5052642;28;20044;-86
2022/05/17 00:44:46;;;;;;;21.52;18.67;;;;;;;15.60;100.00;101237.91;5095595;28;20092;-88
2022/05/17 00:47:30;;;;;;;27.67;17.53;;;;;;;15.59;100.00;101242.31;5082547;28;20048;-87
2022/05/17 00:50:15;;;;;;;20.15;16.60;;;;;;;15.58;100.00;101237.94;5073652;28;20594;-88
2022/05/17 00:52:54;;;;;;;24.27;17.45;;;;;;;15.59;100.00;101239.69;5070621;28;20041;-87
2022/05/17 00:55:33;;;;;;;23.98;18.83;;;;;;;15.59;100.00;101236.16;5079987;28;20041;-88
2022/05/17 00:58:22;;;;;;;21.88;18.50;;;;;;;15.59;100.00;101239.69;5067590;28;20067;-88
2022/05/17 01:01:02;;;;;;;28.35;17.13;;;;;;;15.58;100.00;101242.31;5072229;28;20059;-88
2022/05/17 01:03:56;;;;;;;24.25;18.48;;;;;;;15.53;100.00;101240.66;5067585;28;20078;-88
2022/05/17 01:06:42;;;;;;;24.02;19.20;;;;;;;15.51;100.00;101236.31;5049216;28;20510;-87
2022/05/17 01:09:14;;;;;;;23.15;18.48;;;;;;;15.46;100.00;101233.78;5081779;28;20060;-87
2022/05/17 01:11:49;;;;;;;23.38;19.08;;;;;;;15.44;100.00;101234.72;5048024;28;20078;-88
2022/05/17 01:17:02;;;;;;;25.10;19.20;;;;;;;15.47;100.00;101226.72;5068389;28;20050;-88
2022/05/17 01:19:29;;;;;;;22.75;17.70;;;;;;;15.47;100.00;101232.84;5047220;28;20492;-89
2022/05/17 01:21:56;;;;;;;24.58;16.48;;;;;;;15.46;100.00;101231.16;5045059;28;20679;-87
2022/05/17 01:24:24;;;;;;;25.02;19.52;;;;;;;15.48;100.00;101233.75;5063270;28;20117;-86
2022/05/17 01:27:00;;;;;;;25.25;20.63;;;;;;;15.50;100.00;101232.81;5060495;28;20033;-87
2022/05/17 01:29:27;;;;;;;27.67;20.70;;;;;;;15.51;100.00;101229.28;5068055;28;20044;-86
2022/05/17 01:31:54;;;;;;;23.40;16.35;;;;;;;15.53;100.00;101218.69;5031137;28;20045;-88
2022/05/17 01:34:21;;;;;;;29.40;20.77;;;;;;;15.53;100.00;101219.53;5061501;28;20139;-88
2022/05/17 01:36:49;;;;;;;22.50;17.35;;;;;;;15.53;100.00;101218.69;5058883;28;20483;-87
2022/05/17 01:39:16;;;;;;;24.40;18.85;;;;;;;15.52;100.00;101223.09;5057467;28;20048;-86
2022/05/17 01:41:43;;;;;;;22.23;17.08;;;;;;;15.50;100.00;101219.63;5039128;28;20159;-88
2022/05/17 01:44:10;;;;;;;21.20;17.10;;;;;;;15.48;100.00;101220.56;5042241;28;20400;-88
2022/05/17 01:46:38;;;;;;;21.90;17.80;;;;;;;15.41;100.00;101214.53;5049304;28;20048;-87
2022/05/17 01:49:05;;;;;;;30.83;21.73;;;;;;;15.33;100.00;101214.69;5066027;28;20060;-88
2022/05/17 01:51:32;;;;;;;23.80;18.52;;;;;;;15.22;100.00;101211.38;5060647;28;20949;-88
2022/05/17 01:53:59;;;;;;;25.98;21.15;;;;;;;15.07;100.00;101203.75;5042717;28;20064;-89
2022/05/17 01:56:26;;;;;;;35.88;22.17;;;;;;;14.97;100.00;101205.72;5059833;28;20048;-88
2022/05/17 01:58:53;;;;;;;31.35;22.38;;;;;;;14.95;100.00;101202.22;5070096;28;20049;-88
2022/05/17 02:01:20;;;;;;;25.73;19.65;;;;;;;14.91;100.00;101211.94;5070463;28;20044;-88
2022/05/17 02:03:49;;;;;;;31.98;22.40;;;;;;;14.88;100.00;101209.38;5047716;28;20047;-89
2022/05/17 02:06:24;;;;;;;25.52;19.50;;;;;;;14.83;100.00;101213.84;5064470;28;20048;-87
2022/05/17 02:08:51;;;;;;;28.88;22.65;;;;;;;14.75;100.00;101211.34;5070514;28;20043;-86
2022/05/17 02:11:19;;;;;;;30.15;21.67;;;;;;;14.66;100.00;101204.47;5066091;28;20043;-89
2022/05/17 02:13:45;;;;;;;30.25;23.35;;;;;;;14.58;100.00;101206.34;5068982;28;20308;-88
2022/05/17 02:16:13;;;;;;;33.58;23.33;;;;;;;14.50;100.00;101211.72;5051302;28;20059;-87
2022/05/17 02:18:43;;;;;;;33.75;24.58;;;;;;;14.44;100.00;101218.88;5064397;28;20045;-87
2022/05/17 02:21:13;;;;;;;32.30;22.38;;;;;;;14.36;100.00;101211.94;5080877;28;20111;-86
2022/05/17 02:23:39;;;;;;;26.33;21.33;;;;;;;14.35;100.00;101211.97;5078211;28;20044;-89
2022/05/17 02:26:09;;;;;;;30.90;23.15;;;;;;;14.29;100.00;101207.69;5062534;28;20048;-88
2022/05/17 02:28:38;;;;;;;28.38;20.23;;;;;;;14.25;100.00;101208.63;5071075;28;20048;-87
2022/05/17 02:31:07;;;;;;;31.92;24.67;;;;;;;14.24;100.00;101209.53;5089633;28;20040;-89
2022/05/17 02:33:36;;;;;;;32.50;22.98;;;;;;;14.27;100.00;101206.81;5090064;28;20135;-88
2022/05/17 02:36:06;;;;;;;33.67;22.55;;;;;;;14.35;100.00;101204.97;5063369;28;20068;-89
2022/05/17 02:38:34;;;;;;;31.15;24.55;;;;;;;14.42;100.00;101207.47;5065410;28;20433;-88
2022/05/17 02:41:06;;;;;;;28.77;22.23;;;;;;;14.48;100.00;101218.78;5062453;28;20746;-86
2022/05/17 02:43:34;;;;;;;34.67;23.15;;;;;;;14.55;100.00;101216.94;5060656;28;20048;-87
2022/05/17 02:46:07;;;;;;;28.60;20.65;;;;;;;14.55;100.00;101207.25;5048094;28;20490;-86
2022/05/17 02:48:33;;;;;;;29.35;19.80;;;;;;;14.57;100.00;101201.97;5070557;28;20052;-87
2022/05/17 02:51:18;;;;;;;27.70;20.77;;;;;;;14.56;100.00;101214.28;5061609;28;20114;-88
2022/05/17 02:53:45;;;;;;;29.10;20.83;;;;;;;14.55;100.00;101209.91;5059683;28;20049;-87
2022/05/17 02:56:13;;;;;;;24.60;18.58;;;;;;;14.59;100.00;101213.34;5061968;28;20044;-89
2022/05/17 02:58:39;;;;;;;24.92;18.67;;;;;;;14.63;100.00;101217.69;5060352;28;20475;-88
2022/05/17 03:01:10;;;;;;;26.90;20.98;;;;;;;14.70;100.00;101214.06;5057112;28;20036;-88
2022/05/17 03:03:40;;;;;;;26.85;18.05;;;;;;;14.78;100.00;101218.34;5061603;28;20144;-86
2022/05/17 03:06:08;;;;;;;24.40;19.13;;;;;;;14.80;100.00;101220.06;5051512;28;20071;-88
2022/05/17 03:08:35;;;;;;;22.27;17.50;;;;;;;14.80;100.00;101225.31;5024627;28;20045;-88
2022/05/17 03:11:06;;;;;;;26.95;17.95;;;;;;;14.79;100.00;101228.00;5060677;28;20618;-88
2022/05/17 03:13:35;;;;;;;26.02;18.15;;;;;;;14.74;100.00;101241.22;5044035;28;20041;-89
2022/05/17 03:16:05;;;;;;;23.38;17.02;;;;;;;14.67;100.00;101237.84;5064973;28;20395;-88
2022/05/17 03:18:40;;;;;;;24.38;17.77;;;;;;;14.59;100.00;101241.44;5062453;28;20056;-88
2022/05/17 03:21:07;;;;;;;21.13;15.63;;;;;;;14.53;100.00;101242.44;5059313;28;20115;-89
2022/05/17 03:23:36;;;;;;;19.63;15.95;;;;;;;14.47;100.00;101246.03;5041368;28;20060;-88
2022/05/17 03:26:05;;;;;;;21.10;16.02;;;;;;;14.41;100.00;101247.91;5060451;28;20041;-87
2022/05/17 03:28:32;;;;;;;25.38;17.55;;;;;;;14.35;100.00;101248.84;5061241;28;20032;-86
2022/05/17 03:31:00;;;;;;;20.38;16.25;;;;;;;14.33;100.00;101255.91;5063096;28;20102;-89
2022/05/17 03:33:27;;;;;;;21.52;14.73;;;;;;;14.31;100.00;101261.19;5057431;28;20037;-89
2022/05/17 03:35:56;;;;;;;20.90;15.82;;;;;;;14.30;100.00;101256.84;5063138;28;20957;-87
2022/05/17 03:38:23;;;;;;;24.05;16.45;;;;;;;14.29;100.00;101259.47;5062688;28;20197;-90
2022/05/17 03:40:50;;;;;;;19.85;15.85;;;;;;;14.29;100.00;101256.84;5061633;28;20048;-89
2022/05/17 03:43:18;;;;;;;24.63;16.52;;;;;;;14.27;100.00;101259.50;5059391;28;20394;-87
2022/05/17 03:45:47;;;;;;;26.30;15.90;;;;;;;14.26;100.00;101262.16;5051135;28;20101;-88
2022/05/17 03:48:14;;;;;;;24.75;16.67;;;;;;;14.25;100.00;101265.69;5065006;28;20822;-85
2022/05/17 03:50:43;;;;;;;20.35;15.25;;;;;;;14.22;100.00;101262.22;5051738;28;20052;-89
2022/05/17 03:53:10;;;;;;;22.10;14.95;;;;;;;14.21;100.00;101271.00;5060258;28;20542;-90
2022/05/17 03:55:38;;;;;;;23.10;15.65;;;;;;;14.28;100.00;101274.41;5065113;28;20048;-89
2022/05/17 03:58:07;;;;;;;21.63;14.40;;;;;;;14.40;100.00;101276.00;5068929;28;20040;-86
2022/05/17 04:00:39;;;;;;;20.33;14.95;;;;;;;14.52;100.00;101277.56;5070122;28;20069;-87
2022/05/17 04:03:07;;;;;;;19.27;14.00;;;;;;;14.62;100.00;101283.56;5093341;28;20357;-86
2022/05/17 04:05:34;;;;;;;15.05;13.00;;;;;;;14.71;100.00;101280.81;5059544;28;20090;-85
2022/05/17 04:08:04;;;;;;;18.15;13.02;;;;;;;14.75;100.00;101279.88;5084508;28;20390;-88
2022/05/17 04:10:35;;;;;;;23.38;12.98;;;;;;;14.78;100.00;101290.34;5068482;28;20098;-87
2022/05/17 04:13:10;;;;;;;19.42;13.63;;;;;;;14.79;100.00;101281.56;5054457;28;20051;-87
2022/05/17 04:15:51;;;;;;;15.27;11.82;;;;;;;14.80;100.00;101285.94;5065785;28;20044;-88
2022/05/17 04:18:17;;;;;;;20.35;12.60;;;;;;;14.78;100.00;101284.22;5069327;28;20098;-88
2022/05/17 04:20:44;;;;;;;23.73;13.65;;;;;;;14.75;100.00;101285.16;5049731;28;20045;-86
2022/05/17 04:23:14;;;;;;;18.98;12.23;;;;;;;14.78;100.00;101281.59;5070053;28;20123;-86
2022/05/17 04:28:37;;;;;;;24.65;13.00;;;;;;;14.85;100.00;101284.09;5070918;28;20051;-86
2022/05/17 04:31:08;;;;;;;17.27;11.77;;;;;;;14.86;100.00;101288.50;5074817;28;20036;-85
2022/05/17 04:33:34;;;;;;;20.00;11.20;;;;;;;14.83;100.00;101283.25;5069918;28;20044;-86
2022/05/17 04:36:01;;;;;;;22.02;11.95;;;;;;;14.78;100.00;101285.09;5071331;28;20139;-88
2022/05/17 04:38:28;;;;;;;12.70;10.93;;;;;;;14.71;100.00;101283.47;5060529;28;20043;-85
2022/05/17 04:40:55;;;;;;;15.57;11.35;;;;;;;14.62;100.00;101287.06;5068769;28;20048;-85
2022/05/17 04:43:23;;;;;;;19.25;12.43;;;;;;;14.57;100.00;101294.16;5072905;28;20140;-86
2022/05/17 04:45:51;;;;;;;20.63;12.77;;;;;;;14.51;100.00;101286.34;5065503;28;20045;-87
2022/05/17 04:48:18;;;;;;;20.33;12.18;;;;;;;14.46;100.00;101290.84;5051692;28;20053;-91
2022/05/17 04:50:47;;;;;;;18.65;13.02;;;;;;;14.40;100.00;101289.16;5067049;28;20037;-86
2022/05/17 04:53:19;;;;;;;17.52;12.30;;;;;;;14.36;100.00;101296.22;5061872;28;20715;-87
2022/05/17 04:55:46;;;;;;;17.05;12.02;;;;;;;14.29;100.00;101297.22;5064158;28;20040;-86
2022/05/17 04:58:13;;;;;;;19.17;13.35;;;;;;;14.25;100.00;101298.16;5049261;28;20049;-86
2022/05/17 05:00:40;;;;;;;18.40;12.85;;;;;;;14.22;100.00;101300.81;5067190;28;20072;-87
2022/05/17 05:03:08;;;;;;;18.15;12.77;;;;;;;14.20;100.00;101300.84;5063427;28;20048;-88
2022/05/17 05:05:36;;;;;;;16.90;12.05;;;;;;;14.20;100.00;101305.25;5071663;28;20209;-88
2022/05/17 05:08:33;;;;;;;16.83;12.25;;;;;;;14.22;100.00;101308.72;5065995;28;20082;-86
2022/05/17 05:11:11;;;;;;;23.65;13.57;;;;;;;14.30;100.00;101313.88;5069394;28;20044;-89
2022/05/17 05:13:49;;;;;;;11.07;9.30;;;;;;;14.40;100.00;101315.50;5078359;28;20073;-88
2022/05/17 05:16:18;;;;;;;17.35;11.57;;;;;;;14.51;100.00;101318.84;5075648;28;20043;-89
2022/05/17 05:18:53;;;;;;;16.10;10.48;;;;;;;14.61;100.00;101316.94;5054716;28;20314;-86
2022/05/17 05:21:26;;;;;;;15.10;11.65;;;;;;;14.75;100.00;101313.28;5064709;28;20056;-87
2022/05/17 05:23:56;;;;;;;20.08;10.55;;;;;;;14.84;100.00;101321.03;5071127;28;20044;-87
2022/05/17 05:26:26;;;;;;;18.55;11.15;;;;;;;14.91;100.00;101324.44;5070027;28;20033;-86
2022/05/17 05:28:53;;;;;;;14.10;10.93;;;;;;;14.95;100.00;101326.97;5069071;28;20048;-85
2022/05/17 05:31:28;;;;;;;14.88;10.25;;;;;;;15.00;100.00;101327.78;5071573;28;20084;-85
2022/05/17 05:36:54;;;;;;;21.35;11.63;;;;;;;15.19;100.00;101335.41;5073892;28;20147;-84
2022/05/17 05:39:23;;;;;;;13.18;9.10;;;;;;;15.26;100.00;101331.75;5070590;28;20047;-85
2022/05/17 05:41:49;;;;;;;20.55;11.43;;;;;;;15.34;100.00;101326.34;5093555;28;20048;-87
2022/05/17 05:44:16;;;;;;;21.15;12.65;;;;;;;15.41;100.00;101330.63;5062558;28;20104;-86
2022/05/17 05:46:44;;;;;;;20.77;11.82;;;;;;;15.46;100.00;101325.25;5068094;28;20120;-86
2022/05/17 05:49:11;;;;;;;17.48;11.30;;;;;;;15.51;100.00;101329.56;5069062;28;20067;-85
2022/05/17 05:51:40;;;;;;;20.05;11.57;;;;;;;15.56;100.00;101324.16;5069085;28;20110;-85
2022/05/17 05:54:07;;;;;;;10.52;7.78;;;;;;;15.62;100.00;101333.72;5036302;28;20550;-87
2022/05/17 05:56:38;;;;;;;17.55;8.13;;;;;;;15.68;100.00;101326.59;5067977;28;20741;-87
2022/05/17 05:59:05;;;;;;;21.95;9.68;;;;;;;15.79;100.00;101328.16;5053710;28;20045;-83
2022/05/17 06:01:35;;;;;;;20.50;9.63;;;;;;;15.90;100.00;101334.09;5070900;28;20041;-85
2022/05/17 06:04:09;;;;;;;16.88;8.20;;;;;;;16.05;100.00;101335.56;5066591;28;20047;-85
2022/05/17 06:06:44;;;;;;;16.88;8.88;;;;;;;16.18;100.00;101336.19;5055538;28;20041;-86
2022/05/17 06:09:11;;;;;;;13.85;7.90;;;;;;;16.23;100.00;101339.59;5054986;28;20036;-84
2022/05/17 06:11:46;;;;;;;15.40;9.07;;;;;;;16.27;100.00;101341.25;5070053;28;20040;-87
2022/05/17 06:14:16;;;;;;;14.25;7.82;;;;;;;16.30;100.00;101335.91;5050263;28;21374;-87
2022/05/17 06:16:43;;;;;;;17.27;8.07;;;;;;;16.38;100.00;101344.53;5085734;28;20052;-87
2022/05/17 06:19:15;;;;;;;13.93;6.93;;;;;;;16.57;100.00;101343.25;5065896;28;20037;-86
2022/05/17 06:21:42;;;;;;;15.10;7.43;;;;;;;16.72;99.63;101342.03;5064690;28;20686;-86
2022/05/17 06:24:15;;;;;;;13.85;7.45;;;;;;;16.80;97.68;101348.00;5066932;28;20052;-86
2022/05/17 06:26:41;;;;;;;17.50;7.60;;;;;;;16.83;96.80;101342.63;5049864;28;20049;-86
2022/05/17 06:29:09;;;;;;;15.40;6.75;;;;;;;16.91;96.52;101346.00;5068883;28;20036;-86
2022/05/17 06:31:37;;;;;;;10.57;6.32;;;;;;;17.09;96.21;101349.09;5049765;28;20468;-86
2022/05/17 06:34:06;;;;;;;12.35;8.05;;;;;;;17.31;93.46;101346.75;5069804;28;20052;-85
2022/05/17 06:36:40;;;;;;;14.18;7.30;;;;;;;17.52;93.33;101351.50;5069698;28;20110;-86
2022/05/17 06:39:14;;;;;;;13.15;6.05;;;;;;;17.86;90.71;101358.50;5052996;28;20041;-86
2022/05/17 06:41:44;;;;;;;14.80;7.43;;;;;;;18.17;89.10;101349.72;5082832;28;20048;-86
2022/05/17 06:44:16;;;;;;;10.70;5.90;;;;;;;18.37;87.15;101347.38;5055080;28;20414;-86
2022/05/17 06:46:44;;;;;;;12.35;7.00;;;;;;;18.37;86.12;101353.56;5053270;28;20048;-87
2022/05/17 06:49:11;;;;;;;13.70;6.63;;;;;;;18.27;85.96;101355.59;5065428;28;20060;-87
2022/05/17 06:51:41;;;;;;;15.27;6.80;;;;;;;18.17;84.46;101351.47;5065196;28;20094;-84
2022/05/17 06:54:24;;;;;;;13.13;5.28;;;;;;;18.01;85.06;101354.56;5093106;22;20056;-87
2022/05/17 06:56:52;;;;;;;10.63;5.85;;;;;;;17.91;84.83;101355.72;5056740;28;20040;-86
2022/05/17 06:59:20;;;;;;;11.65;7.47;;;;;;;17.89;85.11;101349.63;5040339;28;20047;-85
2022/05/17 07:01:49;;;;;;;10.38;5.78;;;;;;;17.84;84.94;101356.81;5054777;28;20055;-86
2022/05/17 07:04:18;;;;;;;11.15;5.78;;;;;;;17.82;84.48;101354.22;5073795;28;20375;-82
2022/05/17 07:06:45;;;;;;;10.73;5.20;;;;;;;17.89;83.67;101354.91;5073381;28;20135;-84
2022/05/17 07:09:13;;;;;;;11.70;5.35;;;;;;;18.08;82.48;101354.41;5070696;28;20063;-84
2022/05/17 07:14:32;;;;;;;15.45;6.72;;;;;;;18.78;79.42;101361.13;5087600;28;20046;-86
2022/05/17 07:16:59;;;;;;;10.85;6.20;;;;;;;19.21;78.24;101361.53;5087413;28;20047;-85
2022/05/17 07:19:40;;;;;;;13.57;5.32;;;;;;;19.63;76.09;101359.19;5082660;28;20036;-86
2022/05/17 07:22:07;;;;;;;9.32;5.93;;;;;;;20.00;72.29;101362.31;5078414;28;20104;-86
2022/05/17 07:24:36;;;;;;;12.77;5.40;;;;;;;20.14;71.82;101365.31;5091773;28;20122;-87
2022/05/17 07:27:11;;;;;;;7.95;5.45;;;;;;;20.43;71.44;101375.78;5027995;28;20522;-85
2022/05/17 07:29:38;;;;;;;9.43;5.65;;;;;;;20.76;68.26;101373.59;5040699;28;20056;-85
2022/05/17 07:34:50;;;;;;;11.98;6.35;;;;;;;21.23;66.41;101377.88;5079265;28;20044;-87
2022/05/17 07:37:18;;;;;;;9.23;4.40;;;;;;;21.57;66.15;101383.59;5071075;28;20411;-87
2022/05/17 07:39:56;;;;;;;7.85;3.92;;;;;;;21.79;64.76;101381.72;5057511;28;20055;-86
2022/05/17 07:42:25;;;;;;;7.93;4.40;;;;;;;21.95;63.32;101381.03;5074095;28;20052;-85
2022/05/17 07:44:53;;;;;;;10.23;4.30;;;;;;;22.13;61.29;101377.50;5075911;28;20474;-88
2022/05/17 07:47:26;;;;;;;6.82;3.42;;;;;;;22.53;61.03;101366.81;5065197;28;20055;-85
2022/05/17 07:49:55;;;;;;;6.18;3.63;;;;;;;23.09;59.33;101366.78;5058597;28;20478;-86
2022/05/17 07:55:13;;;;;;;8.73;3.83;;;;;;;24.08;56.23;101364.38;5048733;28;20066;-88
2022/05/17 07:57:40;;;;;;;7.45;3.80;;;;;;;24.35;53.77;101366.47;5069486;28;20055;-86
2022/05/17 08:00:09;;;;;;;7.30;3.47;;;;;;;24.60;54.14;101373.97;5039891;28;20056;-87
2022/05/17 08:02:36;;;;;;;7.63;3.15;;;;;;;25.10;52.59;101372.03;5032511;28;20048;-86
2022/05/17 08:05:09;;;;;;;9.98;3.95;;;;;;;25.49;49.46;101372.44;5068671;28;20074;-85
2022/05/17 08:07:38;;;;;;;6.82;4.20;;;;;;;25.34;50.46;101377.75;5068921;28;20193;-88
2022/05/17 08:10:06;;;;;;;10.98;4.50;;;;;;;25.37;49.38;101382.09;5059754;28;20076;-87
2022/05/17 08:15:23;;;;;;;9.03;3.43;;;;;;;25.92;48.56;101377.88;5080383;28;20036;-86
2022/05/17 08:17:53;;;;;;;9.55;3.20;;;;;;;25.93;48.50;101382.28;5062703;28;20043;-86
2022/05/17 08:20:23;;;;;;;9.52;3.30;;;;;;;25.80;48.81;101387.53;5053516;28;20078;-86
2022/05/17 08:22:51;;;;;;;10.18;4.00;;;;;;;25.43;48.79;101384.41;5045065;28;20048;-86
2022/05/17 08:28:05;;;;;;;7.93;3.70;;;;;;;24.96;49.22;101383.56;5060355;28;20028;-91
2022/05/17 08:30:39;;;;;;;8.00;3.42;;;;;;;24.70;49.21;101385.91;5054014;28;20048;-86
2022/05/17 08:33:16;;;;;;;5.75;2.60;;;;;;;24.77;49.20;101391.81;5071432;28;20048;-87
2022/05/17 08:35:55;;;;;;;4.30;2.55;;;;;;;24.96;49.14;101388.06;5074057;28;20866;-89
2022/05/17 08:38:29;;;;;;;6.38;3.10;;;;;;;25.46;47.69;101389.59;5071238;28;20105;-86
2022/05/17 08:41:10;;;;;;;8.27;3.00;;;;;;;25.99;47.22;101391.75;5053495;28;20075;-86
2022/05/17 08:43:54;;;;;;;7.15;2.15;;;;;;;26.69;44.28;101394.47;5069921;28;20044;-86
2022/05/17 08:46:55;;;;;;;5.55;2.40;;;;;;;27.10;43.44;101395.38;5067241;28;20075;-86
2022/05/17 08:49:32;;;;;;;11.00;2.85;;;;;;;27.20;41.71;101399.19;5092046;28;20044;-88
2022/05/17 08:52:36;;;;;;;6.43;2.08;;;;;;;26.62;42.76;101405.69;5079910;28;20158;-88
2022/05/17 08:55:26;;;;;;;3.95;1.60;;;;;;;27.06;42.53;101400.13;5059218;28;20258;-89
2022/05/17 08:57:59;;;;;;;2.72;1.63;;;;;;;27.43;40.77;101394.09;5054959;28;20052;-86
2022/05/17 09:00:34;;;;;;;4.85;1.92;;;;;;;28.26;40.04;101397.34;5054249;28;20047;-88
2022/05/17 09:03:09;;;;;;;3.90;1.60;;;;;;;29.19;37.56;101397.63;5053215;28;20072;-87
2022/05/17 09:06:22;;;;;;;7.70;1.90;;;;;;;30.13;34.21;101388.63;5086453;28;20048;-89
2022/05/17 09:09:07;;;;;;;6.60;2.15;;;;;;;30.39;33.38;101399.16;5079953;28;20051;-89
2022/05/17 09:11:44;;;;;;;3.17;1.63;;;;;;;29.27;35.31;101407.00;5085218;28;20044;-90
2022/05/17 09:14:19;;;;;;;4.15;1.60;;;;;;;28.85;36.45;101410.97;5058092;28;20105;-87
2022/05/17 09:16:59;;;;;;;3.45;1.60;;;;;;;29.29;35.88;101402.34;5074788;28;20040;-88
2022/05/17 09:19:50;;;;;;;2.83;1.35;;;;;;;29.80;34.09;101417.31;5058784;28;20422;-86
2022/05/17 09:22:20;;;;;;;2.97;1.55;;;;;;;30.27;34.38;101417.22;5088898;28;20054;-86
2022/05/17 09:24:56;;;;;;;4.97;1.92;;;;;;;30.20;34.55;101423.09;5074480;28;20089;-87
2022/05/17 09:27:37;;;;;;;4.40;1.65;;;;;;;30.60;33.81;101413.66;5079282;28;20068;-87
2022/05/17 09:30:12;;;;;;;6.00;1.95;;;;;;;30.28;34.14;101416.25;5055420;28;20138;-87
2022/05/17 09:35:32;;;;;;;;;;;;;;;31.16;33.14;101418.03;5088567;28;20047;-87
2022/05/17 09:38:06;;;;;;;4.10;1.60;;;;;;;31.35;32.70;101413.75;5055390;28;20006;-87
2022/05/17 09:40:40;;;;;;;2.13;1.90;;;;;;;31.58;32.47;101411.78;5056715;28;20283;-87
2022/05/17 09:43:15;;;;;;;6.80;2.33;;;;;;;31.93;32.17;101413.28;5070357;28;20474;-86
2022/05/17 09:45:45;;;;;;;6.82;2.20;;;;;;;31.75;32.16;101412.22;5069966;28;20068;-88
2022/05/17 09:48:15;;;;;;;4.82;1.85;;;;;;;31.53;32.11;101405.06;5077458;28;20044;-88
2022/05/17 09:53:49;;;;;;;3.22;1.75;;;;;;;31.86;31.87;101417.50;5089573;28;20036;-86
2022/05/17 09:56:29;;;;;;;2.63;1.60;;;;;;;32.33;30.95;101406.19;5056929;28;20586;-87
2022/05/17 09:58:56;;;;;;;4.00;1.75;;;;;;;33.17;30.27;101406.75;5070067;28;20163;-87
2022/05/17 10:01:46;;;;;;;3.53;1.90;;;;;;;33.89;29.03;101410.78;5086735;28;20056;-87
2022/05/17 10:04:30;;;;;;;3.25;1.50;;;;;;;33.45;28.98;101407.75;5089870;28;20768;-87
2022/05/17 10:06:58;;;;;;;1.83;1.10;;;;;;;32.87;30.15;101412.19;5070682;28;20047;-86
2022/05/17 10:09:39;;;;;;;2.60;1.20;;;;;;;33.58;28.51;101407.44;5059438;28;20192;-87
2022/05/17 10:12:27;;;;;;;5.95;1.60;;;;;;;33.76;28.33;101410.25;5063060;28;20044;-87
2022/05/17 10:21:32;;;;;;;2.17;1.20;;;;;;;32.60;29.29;101400.13;5089903;28;20040;-88
2022/05/17 10:24:21;;;;;;;3.25;1.10;;;;;;;33.51;27.41;101409.03;5070638;28;20055;-87
2022/05/17 10:27:09;;;;;;;3.15;1.10;;;;;;;34.20;26.48;101406.97;5082188;28;20115;-88
2022/05/17 10:29:46;;;;;;;2.75;0.98;;;;;;;34.73;26.05;101410.78;5071110;28;20044;-87
2022/05/17 10:32:59;;;;;;;3.88;1.55;;;;;;;35.26;25.09;101403.66;5073550;28;20082;-85
2022/05/17 10:35:37;;;;;;;2.95;1.33;;;;;;;35.49;24.30;101406.75;5055558;28;20050;-90
2022/05/17 10:38:16;;;;;;;3.63;1.15;;;;;;;34.06;25.87;101392.84;5062154;28;20040;-87
2022/05/17 10:40:55;;;;;;;4.68;1.90;;;;;;;33.25;26.79;101399.59;5074512;28;20051;-88
2022/05/17 10:43:53;;;;;;;2.58;1.92;;;;;;;32.58;28.29;101402.13;5047010;28;20128;-89
2022/05/17 10:46:38;;;;;;;4.00;1.30;;;;;;;33.55;26.96;101391.44;5073555;28;20040;-86
2022/05/17 10:49:24;;;;;;;4.38;1.60;;;;;;;35.36;25.39;101396.28;5083028;28;20070;-88
2022/05/17 10:52:19;;;;;;;4.78;1.70;;;;;;;35.04;25.48;101399.56;5072409;28;20058;-86
2022/05/17 10:55:30;;;;;;;4.03;1.30;;;;;;;35.09;25.03;101395.34;5056206;28;20050;-88
2022/05/17 10:58:14;;;;;;;2.88;1.60;;;;;;;35.16;25.20;101401.00;5047493;28;20036;-89
2022/05/17 11:00:49;;;;;;;5.95;1.10;;;;;;;35.59;24.94;101401.19;5046412;28;20068;-89
2022/05/17 11:03:59;;;;;;;2.17;1.50;;;;;;;36.75;23.31;101383.44;5070256;28;20039;-88
2022/05/17 11:06:51;;;;;;;4.05;2.13;;;;;;;37.02;23.07;101392.38;5085478;28;20485;-87
2022/05/17 11:09:44;;;;;;;6.00;1.73;;;;;;;37.25;23.23;101401.56;5065648;28;20051;-85
2022/05/17 11:12:15;;;;;;;4.18;1.42;;;;;;;37.94;22.59;101388.50;5062914;28;20059;-84
2022/05/17 11:18:02;;;;;;;4.78;1.40;;;;;;;38.68;20.89;101394.44;5090991;28;20048;-85
2022/05/17 11:20:39;;;;;;;2.50;1.33;;;;;;;37.58;22.31;101387.88;5062795;28;20044;-87
2022/05/17 11:23:42;;;;;;;2.42;1.60;;;;;;;36.30;23.20;101387.41;5090259;28;20053;-87
2022/05/17 11:26:57;;;;;;;1.23;0.90;;;;;;;35.01;25.07;101392.56;5059714;28;20055;-87
2022/05/17 11:29:54;;;;;;;1.98;1.20;;;;;;;34.87;24.76;101384.97;5068713;28;20718;-87
2022/05/17 11:35:28;;;;;;;4.25;1.63;;;;;;;34.06;24.75;101381.13;5067961;28;20052;-86
2022/05/17 11:37:56;;;;;;;5.22;1.60;;;;;;;33.83;25.78;101383.38;5052457;28;20058;-88
2022/05/17 11:40:49;;;;;;;3.40;1.65;;;;;;;35.42;24.27;101371.16;5033116;28;20055;-86
2022/05/17 11:43:42;;;;;;;1.75;1.02;;;;;;;37.49;22.18;101369.81;5062222;28;20139;-86
2022/05/17 11:46:33;;;;;;;3.60;2.08;;;;;;;36.13;22.61;101367.41;5046540;28;20123;-87
2022/05/17 11:49:13;;;;;;;2.85;1.35;;;;;;;33.50;26.00;101374.75;5090201;28;20052;-87
2022/05/17 11:52:00;;;;;;;4.55;1.40;;;;;;;31.95;28.04;101373.38;5083225;28;20074;-85
2022/05/17 11:54:54;;;;;;;2.15;1.13;;;;;;;32.14;27.95;101374.47;5068213;28;20036;-86
2022/05/17 11:57:35;;;;;;;4.63;1.50;;;;;;;33.95;26.07;101363.19;5069617;28;20344;-86
2022/05/17 12:00:24;;;;;;;6.00;1.55;;;;;;;35.07;24.77;101363.88;5091573;28;20052;-86
2022/05/17 12:02:59;;;;;;;2.38;1.20;;;;;;;36.79;22.83;101363.00;5085286;28;20071;-87
2022/05/17 12:05:42;;;;;;;3.95;1.45;;;;;;;37.78;21.66;101359.31;5075572;28;20068;-87
2022/05/17 12:08:28;;;;;;;4.57;1.77;;;;;;;38.59;21.15;101365.41;5093016;28;20445;-84
2022/05/17 12:11:32;;;;;;;4.07;1.40;;;;;;;39.09;20.49;101363.19;5074240;28;20101;-87
2022/05/17 12:14:14;;;;;;;1.77;1.35;;;;;;;38.72;20.58;101371.19;5073414;28;20040;-87
2022/05/17 12:17:06;;;;;;;2.63;1.52;;;;;;;37.48;21.10;101368.09;5091378;28;20163;-87
2022/05/17 12:20:10;;;;;;;3.10;0.90;;;;;;;37.17;20.69;101362.50;5059103;28;20119;-87
2022/05/17 12:23:21;;;;;;;4.03;1.20;;;;;;;38.82;18.90;101354.50;5069938;28;20290;-86
2022/05/17 12:26:01;;;;;;;2.50;0.95;;;;;;;39.55;18.42;101351.25;5051716;28;20199;-86
2022/05/17 12:28:42;;;;;;;6.45;1.30;;;;;;;39.16;19.06;101346.84;5073871;28;20076;-87
2022/05/17 12:31:12;;;;;;;2.85;1.55;;;;;;;38.54;19.77;101359.69;5075495;28;20118;-88
2022/05/17 12:33:48;;;;;;;1.98;1.00;;;;;;;37.50;20.88;101348.84;5086241;28;20059;-87
2022/05/17 12:36:30;;;;;;;3.70;1.58;;;;;;;36.13;21.98;101346.50;5069702;28;20067;-87